Claremont, NH (03743)

10:27 EDT le 02 octobre 2014 (GMT -0400)
Airport Hill | Change Station
CLOSE
Current Station
Stations météorologiques personnelles
Location: Claremont, NH
Altitude: 545 ft
Stations météo à proximité

Alt. 545 ft 43.37 °N, 72.37 °W | Updated 4 seconds ago

Couvert
Couvert
55.9 ° F
Paraît 55.9 ° F
N
0.0
Vent Variable Vent de NO
Gusts 0.0 mph

Aujourd'hui
Haut(e) -- | Bas -- ° F
--% Risque de précip.
Hier
Haut(e) -- | Bas -- ° F
Precip. -- pouce
6:47 AM 6:28 PM
Premier quartier, 59% visible
Pression 30.22 pouce
Visibilité 9.0 Miles terrestres
Nuages Couvert 1100 ft
Point de rosée 53 ° F
Humidité 91%
Précipitations 0.00 pouce
Profondeur de la couche neigeuse Non disponible.
UV 1 sur 12
Pollen 1.40 sur 12
Qualité de l'air Non disponible.
Flu Activity Non disponible.
METAR KVSF 021354Z AUTO 00000KT 9SM OVC011 13/12 A3021 RMK AO2 SLP232 T01280117

More Conditions Fewer Conditions

Pression 30.22 pouce
Visibilité 9.0 Miles terrestres
Nuages Couvert 1100 ft
Point de rosée 53 ° F
Humidité 91%
Précipitations 0.00 pouce
Profondeur de la couche neigeuse Non disponible.
UV 1 sur 12
Pollen 1.40 sur 12
Qualité de l'air Non disponible.
Flu Activity Non disponible.
METAR KVSF 021354Z AUTO 00000KT 9SM OVC011 13/12 A3021 RMK AO2 SLP232 T01280117

More Conditions Fewer Conditions

10-Day Weather Forecast

Almanac

Astronomie

Oct. 02, 2014 Lever Coucher
Temps réel 06:47 EDT 18:28 EDT
Crépuscule civil 06:19 EDT 18:57 EDT
Crépuscule nautique 05:46 EDT 19:30 EDT
Crépuscule astronomique 05:12 EDT 20:03 EDT
Lune 14:41 EDT Pas de coucher de lune
Durée de lumière visible 12h 37m
Longueur du jour
11h 40m
Tomorrow will be 2m 55s shorter.
Premier quartier, 59% of the Moon is Illuminated
Aujourd'hui
Premier quartier
Oct 8
Pleine lune
Oct 15
Dernier quartier
Oct 23
Nouveau
Oct 30
Premier quartier

Extrêmes aujourd'hui

State Highs State Lows

Community

WunderPhotos

Upload Photos

1,758,250 Photos téléchargées !

WunderBlogs® & News

By Dr. Jeff Masters
Director of Meteorology, Weather Underground
By Kari Strenfel
Meteorologist, Weather Underground
By Christopher C. Burt
Weather Historian, Weather Underground
October 2, 2014
October 2, 2014
October 2, 2014

Nearby

Qualité de l'air

  Qualité de l'air Indice de la qualité de l'air Polluant
jeudi Bon
PM2.5
jeudi Bon
OZONE

Épaisseur de neige

Station Depth Altitude
Pas de nouvelles chutes de neige

Activité sismique

Ville Distance Mag. Time & Date
No recent earthquake activity has been reported nearby.
Minimum magnitude displayed is 2.5.

Températures des eaux côtières

Lieu Température
Aucun rapport de station

Stations météo à proximité